sensor_id;sensor_type;location;lat;lon;timestamp;temperature;humidity
57552;DHT22;43379;48.160;14.036;2023-12-07T00:01:08;3.70;99.90
57552;DHT22;43379;48.160;14.036;2023-12-07T00:03:34;3.70;99.90
57552;DHT22;43379;48.160;14.036;2023-12-07T00:06:00;3.70;99.90
57552;DHT22;43379;48.160;14.036;2023-12-07T00:08:25;3.80;99.90
57552;DHT22;43379;48.160;14.036;2023-12-07T00:10:51;3.80;99.90
57552;DHT22;43379;48.160;14.036;2023-12-07T00:13:17;3.80;99.90
57552;DHT22;43379;48.160;14.036;2023-12-07T00:15:42;3.80;99.90
57552;DHT22;43379;48.160;14.036;2023-12-07T00:18:08;3.80;99.90
57552;DHT22;43379;48.160;14.036;2023-12-07T00:20:34;3.80;99.90
57552;DHT22;43379;48.160;14.036;2023-12-07T00:23:00;3.70;99.90
57552;DHT22;43379;48.160;14.036;2023-12-07T00:25:25;3.70;99.90
57552;DHT22;43379;48.160;14.036;2023-12-07T00:27:51;3.70;99.90
57552;DHT22;43379;48.160;14.036;2023-12-07T00:30:17;3.70;99.90
57552;DHT22;43379;48.160;14.036;2023-12-07T00:32:43;3.70;99.90
57552;DHT22;43379;48.160;14.036;2023-12-07T00:35:12;3.70;99.90
57552;DHT22;43379;48.160;14.036;2023-12-07T00:37:38;3.70;99.90
57552;DHT22;43379;48.160;14.036;2023-12-07T00:40:04;3.70;99.90
57552;DHT22;43379;48.160;14.036;2023-12-07T00:42:30;3.80;99.90
57552;DHT22;43379;48.160;14.036;2023-12-07T00:44:56;3.80;99.90
57552;DHT22;43379;48.160;14.036;2023-12-07T00:47:22;3.80;99.90
57552;DHT22;43379;48.160;14.036;2023-12-07T00:49:48;3.80;99.90
57552;DHT22;43379;48.160;14.036;2023-12-07T00:52:13;3.80;99.90
57552;DHT22;43379;48.160;14.036;2023-12-07T00:54:39;3.80;99.90
57552;DHT22;43379;48.160;14.036;2023-12-07T00:57:05;3.80;99.90
57552;DHT22;43379;48.160;14.036;2023-12-07T00:59:31;3.90;99.90
57552;DHT22;43379;48.160;14.036;2023-12-07T01:02:00;3.80;99.90
57552;DHT22;43379;48.160;14.036;2023-12-07T01:04:28;3.80;99.90
57552;DHT22;43379;48.160;14.036;2023-12-07T01:06:53;3.80;99.90
57552;DHT22;43379;48.160;14.036;2023-12-07T01:09:19;3.80;99.90
57552;DHT22;43379;48.160;14.036;2023-12-07T01:11:44;3.80;99.90
57552;DHT22;43379;48.160;14.036;2023-12-07T01:14:10;3.80;99.90
57552;DHT22;43379;48.160;14.036;2023-12-07T01:16:36;3.80;99.90
57552;DHT22;43379;48.160;14.036;2023-12-07T01:19:02;3.70;99.90
57552;DHT22;43379;48.160;14.036;2023-12-07T01:21:28;3.70;99.90
57552;DHT22;43379;48.160;14.036;2023-12-07T01:23:54;3.70;99.90
57552;DHT22;43379;48.160;14.036;2023-12-07T01:26:19;3.70;99.90
57552;DHT22;43379;48.160;14.036;2023-12-07T01:28:45;3.70;99.90
57552;DHT22;43379;48.160;14.036;2023-12-07T01:31:10;3.70;99.90
57552;DHT22;43379;48.160;14.036;2023-12-07T01:33:36;3.70;99.90
57552;DHT22;43379;48.160;14.036;2023-12-07T01:36:02;3.70;99.90
57552;DHT22;43379;48.160;14.036;2023-12-07T01:38:27;3.80;99.90
57552;DHT22;43379;48.160;14.036;2023-12-07T01:40:53;3.80;99.90
57552;DHT22;43379;48.160;14.036;2023-12-07T01:43:19;3.70;99.90
57552;DHT22;43379;48.160;14.036;2023-12-07T01:45:46;3.80;99.90
57552;DHT22;43379;48.160;14.036;2023-12-07T01:48:13;3.70;99.90
57552;DHT22;43379;48.160;14.036;2023-12-07T01:50:38;3.70;99.90
57552;DHT22;43379;48.160;14.036;2023-12-07T01:53:05;3.70;99.90
57552;DHT22;43379;48.160;14.036;2023-12-07T01:55:32;3.70;99.90
57552;DHT22;43379;48.160;14.036;2023-12-07T01:57:58;3.80;99.90
57552;DHT22;43379;48.160;14.036;2023-12-07T02:00:26;3.80;99.90
57552;DHT22;43379;48.160;14.036;2023-12-07T02:02:52;3.80;99.90
57552;DHT22;43379;48.160;14.036;2023-12-07T02:05:17;3.80;99.90
57552;DHT22;43379;48.160;14.036;2023-12-07T02:07:43;3.80;99.90
57552;DHT22;43379;48.160;14.036;2023-12-07T02:10:10;3.80;99.90
57552;DHT22;43379;48.160;14.036;2023-12-07T02:12:36;3.80;99.90
57552;DHT22;43379;48.160;14.036;2023-12-07T02:15:02;3.80;99.90
57552;DHT22;43379;48.160;14.036;2023-12-07T02:17:35;3.80;99.90
57552;DHT22;43379;48.160;14.036;2023-12-07T02:20:21;3.80;99.90
57552;DHT22;43379;48.160;14.036;2023-12-07T02:22:56;3.80;99.90
57552;DHT22;43379;48.160;14.036;2023-12-07T02:25:29;3.80;99.90
57552;DHT22;43379;48.160;14.036;2023-12-07T02:27:57;3.80;99.90
57552;DHT22;43379;48.160;14.036;2023-12-07T02:30:22;3.80;99.90
57552;DHT22;43379;48.160;14.036;2023-12-07T02:32:48;3.80;99.90
57552;DHT22;43379;48.160;14.036;2023-12-07T02:35:14;3.90;99.90
57552;DHT22;43379;48.160;14.036;2023-12-07T02:37:45;3.90;99.90
57552;DHT22;43379;48.160;14.036;2023-12-07T02:40:15;3.90;99.90
57552;DHT22;43379;48.160;14.036;2023-12-07T02:42:43;3.90;99.90
57552;DHT22;43379;48.160;14.036;2023-12-07T02:45:10;3.80;99.90
57552;DHT22;43379;48.160;14.036;2023-12-07T02:47:36;3.90;99.90
57552;DHT22;43379;48.160;14.036;2023-12-07T02:50:06;3.90;99.90
57552;DHT22;43379;48.160;14.036;2023-12-07T02:52:33;3.90;99.90
57552;DHT22;43379;48.160;14.036;2023-12-07T02:54:58;3.80;99.90
57552;DHT22;43379;48.160;14.036;2023-12-07T02:57:24;3.90;99.90
57552;DHT22;43379;48.160;14.036;2023-12-07T02:59:50;3.90;99.90
57552;DHT22;43379;48.160;14.036;2023-12-07T03:02:15;3.90;99.90
57552;DHT22;43379;48.160;14.036;2023-12-07T03:04:41;3.90;99.90
57552;DHT22;43379;48.160;14.036;2023-12-07T03:07:07;3.90;99.90
57552;DHT22;43379;48.160;14.036;2023-12-07T03:09:33;3.90;99.90
57552;DHT22;43379;48.160;14.036;2023-12-07T03:11:59;3.90;99.90
57552;DHT22;43379;48.160;14.036;2023-12-07T03:14:24;3.80;99.90
57552;DHT22;43379;48.160;14.036;2023-12-07T03:16:50;3.80;99.90
57552;DHT22;43379;48.160;14.036;2023-12-07T03:19:15;3.80;99.90
57552;DHT22;43379;48.160;14.036;2023-12-07T03:21:42;3.80;99.90
57552;DHT22;43379;48.160;14.036;2023-12-07T03:24:08;3.80;99.90
57552;DHT22;43379;48.160;14.036;2023-12-07T03:26:34;3.80;99.90
57552;DHT22;43379;48.160;14.036;2023-12-07T03:29:00;3.80;99.90
57552;DHT22;43379;48.160;14.036;2023-12-07T03:31:27;3.80;99.90
57552;DHT22;43379;48.160;14.036;2023-12-07T03:33:53;3.80;99.90
57552;DHT22;43379;48.160;14.036;2023-12-07T03:36:19;3.70;99.90
57552;DHT22;43379;48.160;14.036;2023-12-07T03:38:45;3.70;99.90
57552;DHT22;43379;48.160;14.036;2023-12-07T03:41:11;3.70;99.90
57552;DHT22;43379;48.160;14.036;2023-12-07T03:43:36;3.70;99.90
57552;DHT22;43379;48.160;14.036;2023-12-07T03:46:06;3.70;99.90
57552;DHT22;43379;48.160;14.036;2023-12-07T03:48:32;3.70;99.90
57552;DHT22;43379;48.160;14.036;2023-12-07T03:50:58;3.70;99.90
57552;DHT22;43379;48.160;14.036;2023-12-07T03:53:23;3.70;99.90
57552;DHT22;43379;48.160;14.036;2023-12-07T03:55:49;3.60;99.90
57552;DHT22;43379;48.160;14.036;2023-12-07T03:58:15;3.60;99.90
57552;DHT22;43379;48.160;14.036;2023-12-07T04:00:40;3.70;99.90
57552;DHT22;43379;48.160;14.036;2023-12-07T04:03:06;3.70;99.90
57552;DHT22;43379;48.160;14.036;2023-12-07T04:05:33;3.70;99.90
57552;DHT22;43379;48.160;14.036;2023-12-07T04:07:59;3.70;99.90
57552;DHT22;43379;48.160;14.036;2023-12-07T04:10:24;3.60;99.90
57552;DHT22;43379;48.160;14.036;2023-12-07T04:12:50;3.50;99.90
57552;DHT22;43379;48.160;14.036;2023-12-07T04:15:18;3.50;99.90
57552;DHT22;43379;48.160;14.036;2023-12-07T04:17:44;3.60;99.90
57552;DHT22;43379;48.160;14.036;2023-12-07T04:20:10;3.60;99.90
57552;DHT22;43379;48.160;14.036;2023-12-07T04:22:36;3.60;99.90
57552;DHT22;43379;48.160;14.036;2023-12-07T04:25:01;3.70;99.90
57552;DHT22;43379;48.160;14.036;2023-12-07T04:27:27;3.70;99.90
57552;DHT22;43379;48.160;14.036;2023-12-07T04:29:53;3.70;99.90
57552;DHT22;43379;48.160;14.036;2023-12-07T04:32:19;3.70;99.90
57552;DHT22;43379;48.160;14.036;2023-12-07T04:34:45;3.70;99.90
57552;DHT22;43379;48.160;14.036;2023-12-07T04:37:10;3.70;99.90
57552;DHT22;43379;48.160;14.036;2023-12-07T04:39:36;3.60;99.90
57552;DHT22;43379;48.160;14.036;2023-12-07T04:42:02;3.60;99.90
57552;DHT22;43379;48.160;14.036;2023-12-07T04:44:27;3.60;99.90
57552;DHT22;43379;48.160;14.036;2023-12-07T04:46:53;3.60;99.90
57552;DHT22;43379;48.160;14.036;2023-12-07T04:49:19;3.70;99.90
57552;DHT22;43379;48.160;14.036;2023-12-07T04:51:45;3.60;99.90
57552;DHT22;43379;48.160;14.036;2023-12-07T04:54:12;3.70;99.90
57552;DHT22;43379;48.160;14.036;2023-12-07T04:56:41;3.70;99.90
57552;DHT22;43379;48.160;14.036;2023-12-07T04:59:07;3.70;99.90
57552;DHT22;43379;48.160;14.036;2023-12-07T05:01:33;3.70;99.90
57552;DHT22;43379;48.160;14.036;2023-12-07T05:03:58;3.70;99.90
57552;DHT22;43379;48.160;14.036;2023-12-07T05:06:24;3.70;99.90
57552;DHT22;43379;48.160;14.036;2023-12-07T05:08:50;3.70;99.90
57552;DHT22;43379;48.160;14.036;2023-12-07T05:11:16;3.70;99.90
57552;DHT22;43379;48.160;14.036;2023-12-07T05:13:42;3.70;99.90
57552;DHT22;43379;48.160;14.036;2023-12-07T05:16:10;3.70;99.90
57552;DHT22;43379;48.160;14.036;2023-12-07T05:18:35;3.70;99.90
57552;DHT22;43379;48.160;14.036;2023-12-07T05:21:01;3.70;99.90
57552;DHT22;43379;48.160;14.036;2023-12-07T05:23:27;3.70;99.90
57552;DHT22;43379;48.160;14.036;2023-12-07T05:25:53;3.80;99.90
57552;DHT22;43379;48.160;14.036;2023-12-07T05:28:19;3.70;99.90
57552;DHT22;43379;48.160;14.036;2023-12-07T05:30:45;3.70;99.90
57552;DHT22;43379;48.160;14.036;2023-12-07T05:33:11;3.70;99.90
57552;DHT22;43379;48.160;14.036;2023-12-07T05:35:37;3.60;99.90
57552;DHT22;43379;48.160;14.036;2023-12-07T05:38:02;3.70;99.90
57552;DHT22;43379;48.160;14.036;2023-12-07T05:40:28;3.60;99.90
57552;DHT22;43379;48.160;14.036;2023-12-07T05:42:54;3.70;99.90
57552;DHT22;43379;48.160;14.036;2023-12-07T05:45:20;3.70;99.90
57552;DHT22;43379;48.160;14.036;2023-12-07T05:47:46;3.70;99.90
57552;DHT22;43379;48.160;14.036;2023-12-07T05:50:12;3.70;99.90
57552;DHT22;43379;48.160;14.036;2023-12-07T05:52:37;3.70;99.90
57552;DHT22;43379;48.160;14.036;2023-12-07T05:55:04;3.70;99.90
57552;DHT22;43379;48.160;14.036;2023-12-07T05:57:30;3.70;99.90
57552;DHT22;43379;48.160;14.036;2023-12-07T05:59:56;3.60;99.90
57552;DHT22;43379;48.160;14.036;2023-12-07T06:02:22;3.60;99.90
57552;DHT22;43379;48.160;14.036;2023-12-07T06:04:47;3.60;99.90
57552;DHT22;43379;48.160;14.036;2023-12-07T06:07:13;3.60;99.90
57552;DHT22;43379;48.160;14.036;2023-12-07T06:09:40;3.60;99.90
57552;DHT22;43379;48.160;14.036;2023-12-07T06:12:07;3.60;99.90
57552;DHT22;43379;48.160;14.036;2023-12-07T06:14:32;3.60;99.90
57552;DHT22;43379;48.160;14.036;2023-12-07T06:16:58;3.60;99.90
57552;DHT22;43379;48.160;14.036;2023-12-07T06:19:25;3.60;99.90
57552;DHT22;43379;48.160;14.036;2023-12-07T06:21:50;3.60;99.90
57552;DHT22;43379;48.160;14.036;2023-12-07T06:24:16;3.70;99.90
57552;DHT22;43379;48.160;14.036;2023-12-07T06:26:42;3.60;99.90
57552;DHT22;43379;48.160;14.036;2023-12-07T06:29:07;3.70;99.90
57552;DHT22;43379;48.160;14.036;2023-12-07T06:31:33;3.70;99.90
57552;DHT22;43379;48.160;14.036;2023-12-07T06:33:59;3.70;99.90
57552;DHT22;43379;48.160;14.036;2023-12-07T06:36:28;3.70;99.90
57552;DHT22;43379;48.160;14.036;2023-12-07T06:38:54;3.70;99.90
57552;DHT22;43379;48.160;14.036;2023-12-07T06:41:23;3.70;99.90
57552;DHT22;43379;48.160;14.036;2023-12-07T06:43:49;3.70;99.90
57552;DHT22;43379;48.160;14.036;2023-12-07T06:46:14;3.80;99.90
57552;DHT22;43379;48.160;14.036;2023-12-07T06:48:42;3.80;99.90
57552;DHT22;43379;48.160;14.036;2023-12-07T06:51:07;3.80;99.90
57552;DHT22;43379;48.160;14.036;2023-12-07T06:53:33;3.80;99.90
57552;DHT22;43379;48.160;14.036;2023-12-07T06:55:59;3.80;99.90
57552;DHT22;43379;48.160;14.036;2023-12-07T06:58:24;3.80;99.90
57552;DHT22;43379;48.160;14.036;2023-12-07T07:00:50;3.80;99.90
57552;DHT22;43379;48.160;14.036;2023-12-07T07:03:16;3.80;99.90
57552;DHT22;43379;48.160;14.036;2023-12-07T07:05:42;3.80;99.90
57552;DHT22;43379;48.160;14.036;2023-12-07T07:08:08;3.80;99.90
57552;DHT22;43379;48.160;14.036;2023-12-07T07:10:34;3.80;99.90
57552;DHT22;43379;48.160;14.036;2023-12-07T07:13:03;3.80;99.90
57552;DHT22;43379;48.160;14.036;2023-12-07T07:15:30;3.80;99.90
57552;DHT22;43379;48.160;14.036;2023-12-07T07:17:56;3.80;99.90
57552;DHT22;43379;48.160;14.036;2023-12-07T07:20:22;3.80;99.90
57552;DHT22;43379;48.160;14.036;2023-12-07T07:22:48;3.80;99.90
57552;DHT22;43379;48.160;14.036;2023-12-07T07:25:13;3.80;99.90
57552;DHT22;43379;48.160;14.036;2023-12-07T07:27:41;3.80;99.90
57552;DHT22;43379;48.160;14.036;2023-12-07T07:30:08;3.80;99.90
57552;DHT22;43379;48.160;14.036;2023-12-07T07:32:34;3.80;99.90
57552;DHT22;43379;48.160;14.036;2023-12-07T07:34:59;3.70;99.90
57552;DHT22;43379;48.160;14.036;2023-12-07T07:37:25;3.70;99.90
57552;DHT22;43379;48.160;14.036;2023-12-07T07:39:51;3.70;99.90
57552;DHT22;43379;48.160;14.036;2023-12-07T07:42:17;3.70;99.90
57552;DHT22;43379;48.160;14.036;2023-12-07T07:44:42;3.80;99.90
57552;DHT22;43379;48.160;14.036;2023-12-07T07:47:08;3.80;99.90
57552;DHT22;43379;48.160;14.036;2023-12-07T07:49:34;3.80;99.90
57552;DHT22;43379;48.160;14.036;2023-12-07T07:52:00;3.70;99.90
57552;DHT22;43379;48.160;14.036;2023-12-07T07:54:26;3.70;99.90
57552;DHT22;43379;48.160;14.036;2023-12-07T07:56:51;3.80;99.90
57552;DHT22;43379;48.160;14.036;2023-12-07T07:59:17;3.80;99.90
57552;DHT22;43379;48.160;14.036;2023-12-07T08:01:42;3.80;99.90
57552;DHT22;43379;48.160;14.036;2023-12-07T08:04:10;3.90;99.90
57552;DHT22;43379;48.160;14.036;2023-12-07T08:06:35;3.90;99.90
57552;DHT22;43379;48.160;14.036;2023-12-07T08:09:01;3.90;99.90
57552;DHT22;43379;48.160;14.036;2023-12-07T08:11:27;3.90;99.90
57552;DHT22;43379;48.160;14.036;2023-12-07T08:13:53;4.00;99.90
57552;DHT22;43379;48.160;14.036;2023-12-07T08:16:19;4.00;99.90
57552;DHT22;43379;48.160;14.036;2023-12-07T08:18:44;4.00;99.90
57552;DHT22;43379;48.160;14.036;2023-12-07T08:21:19;4.10;99.90
57552;DHT22;43379;48.160;14.036;2023-12-07T08:23:45;4.10;99.90
57552;DHT22;43379;48.160;14.036;2023-12-07T08:26:11;4.10;99.90
57552;DHT22;43379;48.160;14.036;2023-12-07T08:28:39;4.10;99.90
57552;DHT22;43379;48.160;14.036;2023-12-07T08:31:05;4.00;99.90
57552;DHT22;43379;48.160;14.036;2023-12-07T08:33:32;4.10;99.90
57552;DHT22;43379;48.160;14.036;2023-12-07T08:36:00;4.10;99.90
57552;DHT22;43379;48.160;14.036;2023-12-07T08:38:25;4.10;99.90
57552;DHT22;43379;48.160;14.036;2023-12-07T08:40:51;4.10;99.90
57552;DHT22;43379;48.160;14.036;2023-12-07T08:43:21;4.10;99.90
57552;DHT22;43379;48.160;14.036;2023-12-07T08:45:48;4.10;99.90
57552;DHT22;43379;48.160;14.036;2023-12-07T08:48:14;4.10;99.90
57552;DHT22;43379;48.160;14.036;2023-12-07T08:50:39;4.10;99.90
57552;DHT22;43379;48.160;14.036;2023-12-07T08:53:06;4.10;99.90
57552;DHT22;43379;48.160;14.036;2023-12-07T08:55:31;4.20;99.90
57552;DHT22;43379;48.160;14.036;2023-12-07T08:57:57;4.20;99.90
57552;DHT22;43379;48.160;14.036;2023-12-07T09:00:25;4.30;99.90
57552;DHT22;43379;48.160;14.036;2023-12-07T09:02:51;4.20;99.90
57552;DHT22;43379;48.160;14.036;2023-12-07T09:05:17;4.20;99.90
57552;DHT22;43379;48.160;14.036;2023-12-07T09:07:44;4.30;99.90
57552;DHT22;43379;48.160;14.036;2023-12-07T09:10:10;4.30;99.90
57552;DHT22;43379;48.160;14.036;2023-12-07T09:12:36;4.40;99.90
57552;DHT22;43379;48.160;14.036;2023-12-07T09:15:04;4.40;99.90
57552;DHT22;43379;48.160;14.036;2023-12-07T09:17:32;4.40;99.90
57552;DHT22;43379;48.160;14.036;2023-12-07T09:19:58;4.50;99.90
57552;DHT22;43379;48.160;14.036;2023-12-07T09:22:24;4.70;99.90
57552;DHT22;43379;48.160;14.036;2023-12-07T09:24:50;4.70;99.90
57552;DHT22;43379;48.160;14.036;2023-12-07T09:27:16;4.70;99.90
57552;DHT22;43379;48.160;14.036;2023-12-07T09:29:42;4.70;99.90
57552;DHT22;43379;48.160;14.036;2023-12-07T09:32:07;4.70;99.90
57552;DHT22;43379;48.160;14.036;2023-12-07T09:34:33;4.80;99.90
57552;DHT22;43379;48.160;14.036;2023-12-07T09:37:06;4.90;99.90
57552;DHT22;43379;48.160;14.036;2023-12-07T09:39:32;4.90;99.90
57552;DHT22;43379;48.160;14.036;2023-12-07T09:41:58;5.00;99.90
57552;DHT22;43379;48.160;14.036;2023-12-07T09:44:24;5.00;99.90
57552;DHT22;43379;48.160;14.036;2023-12-07T09:46:50;5.00;99.90
57552;DHT22;43379;48.160;14.036;2023-12-07T09:49:17;5.00;99.90
57552;DHT22;43379;48.160;14.036;2023-12-07T09:51:43;5.00;99.90
57552;DHT22;43379;48.160;14.036;2023-12-07T09:54:09;5.10;99.90
57552;DHT22;43379;48.160;14.036;2023-12-07T09:56:36;5.10;99.90
57552;DHT22;43379;48.160;14.036;2023-12-07T09:59:01;5.20;99.90
57552;DHT22;43379;48.160;14.036;2023-12-07T10:01:30;5.20;99.90
57552;DHT22;43379;48.160;14.036;2023-12-07T10:06:44;5.30;99.90
57552;DHT22;43379;48.160;14.036;2023-12-07T10:09:11;5.50;99.90
57552;DHT22;43379;48.160;14.036;2023-12-07T10:11:37;5.50;99.90
57552;DHT22;43379;48.160;14.036;2023-12-07T10:14:03;5.60;99.90
57552;DHT22;43379;48.160;14.036;2023-12-07T10:16:28;5.50;99.90
57552;DHT22;43379;48.160;14.036;2023-12-07T10:18:54;5.50;99.90
57552;DHT22;43379;48.160;14.036;2023-12-07T10:21:31;5.60;99.90
57552;DHT22;43379;48.160;14.036;2023-12-07T10:23:57;5.60;99.90
57552;DHT22;43379;48.160;14.036;2023-12-07T10:26:23;5.80;99.90
57552;DHT22;43379;48.160;14.036;2023-12-07T10:28:52;5.80;99.90
57552;DHT22;43379;48.160;14.036;2023-12-07T10:31:20;5.80;99.90
57552;DHT22;43379;48.160;14.036;2023-12-07T10:33:48;5.80;99.90
57552;DHT22;43379;48.160;14.036;2023-12-07T10:36:14;5.80;99.90
57552;DHT22;43379;48.160;14.036;2023-12-07T10:38:40;6.00;99.90
57552;DHT22;43379;48.160;14.036;2023-12-07T10:41:09;6.00;99.90
57552;DHT22;43379;48.160;14.036;2023-12-07T10:43:40;6.10;99.90
57552;DHT22;43379;48.160;14.036;2023-12-07T10:46:06;6.20;99.90
57552;DHT22;43379;48.160;14.036;2023-12-07T10:48:34;6.20;99.90
57552;DHT22;43379;48.160;14.036;2023-12-07T10:51:04;6.10;99.90
57552;DHT22;43379;48.160;14.036;2023-12-07T10:53:38;6.20;99.90
57552;DHT22;43379;48.160;14.036;2023-12-07T10:56:12;6.30;99.90
57552;DHT22;43379;48.160;14.036;2023-12-07T10:58:40;6.60;99.90
57552;DHT22;43379;48.160;14.036;2023-12-07T11:01:07;6.80;99.90
57552;DHT22;43379;48.160;14.036;2023-12-07T11:03:37;7.00;99.90
57552;DHT22;43379;48.160;14.036;2023-12-07T11:06:06;7.10;99.90
57552;DHT22;43379;48.160;14.036;2023-12-07T11:08:59;7.10;99.90
57552;DHT22;43379;48.160;14.036;2023-12-07T11:14:11;7.40;99.90
57552;DHT22;43379;48.160;14.036;2023-12-07T11:16:40;7.50;99.90
57552;DHT22;43379;48.160;14.036;2023-12-07T11:22:01;7.60;99.90
57552;DHT22;43379;48.160;14.036;2023-12-07T11:24:27;7.80;99.90
57552;DHT22;43379;48.160;14.036;2023-12-07T11:26:56;7.90;99.90
57552;DHT22;43379;48.160;14.036;2023-12-07T11:29:28;8.00;99.90
57552;DHT22;43379;48.160;14.036;2023-12-07T11:32:01;8.20;99.90
57552;DHT22;43379;48.160;14.036;2023-12-07T11:34:45;8.30;99.90
57552;DHT22;43379;48.160;14.036;2023-12-07T11:37:14;8.30;99.90
57552;DHT22;43379;48.160;14.036;2023-12-07T11:39:41;8.40;99.90
57552;DHT22;43379;48.160;14.036;2023-12-07T11:42:11;8.30;99.90
57552;DHT22;43379;48.160;14.036;2023-12-07T11:44:38;8.20;99.90
57552;DHT22;43379;48.160;14.036;2023-12-07T11:47:05;8.10;99.90
57552;DHT22;43379;48.160;14.036;2023-12-07T11:49:31;8.10;99.90
57552;DHT22;43379;48.160;14.036;2023-12-07T11:51:58;8.20;99.90
57552;DHT22;43379;48.160;14.036;2023-12-07T11:54:24;8.10;99.90
57552;DHT22;43379;48.160;14.036;2023-12-07T11:56:54;8.10;99.90
57552;DHT22;43379;48.160;14.036;2023-12-07T11:59:20;7.90;99.90
57552;DHT22;43379;48.160;14.036;2023-12-07T12:01:47;7.90;99.90
57552;DHT22;43379;48.160;14.036;2023-12-07T12:04:14;8.00;99.90
57552;DHT22;43379;48.160;14.036;2023-12-07T12:06:40;8.00;99.90
57552;DHT22;43379;48.160;14.036;2023-12-07T12:09:06;8.00;99.90
57552;DHT22;43379;48.160;14.036;2023-12-07T12:11:31;8.00;99.90
57552;DHT22;43379;48.160;14.036;2023-12-07T12:13:57;8.00;99.90
57552;DHT22;43379;48.160;14.036;2023-12-07T12:16:23;8.10;99.90
57552;DHT22;43379;48.160;14.036;2023-12-07T12:18:49;8.10;99.90
57552;DHT22;43379;48.160;14.036;2023-12-07T12:21:15;8.10;99.90
57552;DHT22;43379;48.160;14.036;2023-12-07T12:23:40;8.00;99.90
57552;DHT22;43379;48.160;14.036;2023-12-07T12:26:07;8.10;99.90
57552;DHT22;43379;48.160;14.036;2023-12-07T12:28:33;8.10;99.90
57552;DHT22;43379;48.160;14.036;2023-12-07T12:31:03;8.10;99.90
57552;DHT22;43379;48.160;14.036;2023-12-07T12:33:30;7.90;99.90
57552;DHT22;43379;48.160;14.036;2023-12-07T12:36:04;8.00;99.90
57552;DHT22;43379;48.160;14.036;2023-12-07T12:38:30;8.10;99.90
57552;DHT22;43379;48.160;14.036;2023-12-07T12:40:56;8.10;99.90
57552;DHT22;43379;48.160;14.036;2023-12-07T12:43:22;8.20;99.90
57552;DHT22;43379;48.160;14.036;2023-12-07T12:45:48;8.20;99.90
57552;DHT22;43379;48.160;14.036;2023-12-07T12:48:14;8.20;99.90
57552;DHT22;43379;48.160;14.036;2023-12-07T12:50:40;8.30;99.90
57552;DHT22;43379;48.160;14.036;2023-12-07T12:53:07;8.30;99.90
57552;DHT22;43379;48.160;14.036;2023-12-07T12:55:35;8.10;99.90
57552;DHT22;43379;48.160;14.036;2023-12-07T12:58:01;8.20;99.90
57552;DHT22;43379;48.160;14.036;2023-12-07T13:00:30;8.10;99.90
57552;DHT22;43379;48.160;14.036;2023-12-07T13:02:56;8.10;99.90
57552;DHT22;43379;48.160;14.036;2023-12-07T13:05:22;8.20;99.90
57552;DHT22;43379;48.160;14.036;2023-12-07T13:07:48;8.10;99.90
57552;DHT22;43379;48.160;14.036;2023-12-07T13:10:17;7.90;99.90
57552;DHT22;43379;48.160;14.036;2023-12-07T13:12:43;7.80;99.90
57552;DHT22;43379;48.160;14.036;2023-12-07T13:15:11;7.90;99.90
57552;DHT22;43379;48.160;14.036;2023-12-07T13:17:42;7.90;99.90
57552;DHT22;43379;48.160;14.036;2023-12-07T13:20:09;7.80;99.90
57552;DHT22;43379;48.160;14.036;2023-12-07T13:22:42;7.80;99.90
57552;DHT22;43379;48.160;14.036;2023-12-07T13:25:11;7.70;99.90
57552;DHT22;43379;48.160;14.036;2023-12-07T13:27:39;7.80;99.90
57552;DHT22;43379;48.160;14.036;2023-12-07T13:30:06;7.80;99.90
57552;DHT22;43379;48.160;14.036;2023-12-07T13:32:36;7.70;99.90
57552;DHT22;43379;48.160;14.036;2023-12-07T13:35:05;7.70;99.90
57552;DHT22;43379;48.160;14.036;2023-12-07T13:37:32;7.70;99.90
57552;DHT22;43379;48.160;14.036;2023-12-07T13:40:00;7.60;99.90
57552;DHT22;43379;48.160;14.036;2023-12-07T13:42:29;7.60;99.90
57552;DHT22;43379;48.160;14.036;2023-12-07T13:44:56;7.30;99.90
57552;DHT22;43379;48.160;14.036;2023-12-07T13:47:23;7.30;99.90
57552;DHT22;43379;48.160;14.036;2023-12-07T13:49:54;7.20;99.90
57552;DHT22;43379;48.160;14.036;2023-12-07T13:52:20;7.20;99.90
57552;DHT22;43379;48.160;14.036;2023-12-07T13:54:46;7.20;99.90
57552;DHT22;43379;48.160;14.036;2023-12-07T13:57:12;7.10;99.90
57552;DHT22;43379;48.160;14.036;2023-12-07T13:59:38;7.10;99.90
57552;DHT22;43379;48.160;14.036;2023-12-07T14:02:04;7.00;99.90
57552;DHT22;43379;48.160;14.036;2023-12-07T14:04:29;7.00;99.90
57552;DHT22;43379;48.160;14.036;2023-12-07T14:07:13;7.00;99.90
57552;DHT22;43379;48.160;14.036;2023-12-07T14:09:46;6.90;99.90
57552;DHT22;43379;48.160;14.036;2023-12-07T14:12:13;6.90;99.90
57552;DHT22;43379;48.160;14.036;2023-12-07T14:14:43;6.80;99.90
57552;DHT22;43379;48.160;14.036;2023-12-07T14:17:10;6.70;99.90
57552;DHT22;43379;48.160;14.036;2023-12-07T14:19:36;6.60;99.90
57552;DHT22;43379;48.160;14.036;2023-12-07T14:22:01;6.50;99.90
57552;DHT22;43379;48.160;14.036;2023-12-07T14:24:28;6.50;99.90
57552;DHT22;43379;48.160;14.036;2023-12-07T14:26:56;6.40;99.90
57552;DHT22;43379;48.160;14.036;2023-12-07T14:29:22;6.40;99.90
57552;DHT22;43379;48.160;14.036;2023-12-07T14:31:50;6.30;99.90
57552;DHT22;43379;48.160;14.036;2023-12-07T14:34:17;6.20;99.90
57552;DHT22;43379;48.160;14.036;2023-12-07T14:36:43;6.20;99.90
57552;DHT22;43379;48.160;14.036;2023-12-07T14:39:13;6.10;99.90
57552;DHT22;43379;48.160;14.036;2023-12-07T14:41:46;6.10;99.90
57552;DHT22;43379;48.160;14.036;2023-12-07T14:44:15;6.00;99.90
57552;DHT22;43379;48.160;14.036;2023-12-07T14:46:48;5.90;99.90
57552;DHT22;43379;48.160;14.036;2023-12-07T14:49:15;5.80;99.90
57552;DHT22;43379;48.160;14.036;2023-12-07T14:51:42;5.80;99.90
57552;DHT22;43379;48.160;14.036;2023-12-07T14:54:08;5.80;99.90
57552;DHT22;43379;48.160;14.036;2023-12-07T14:56:38;5.70;99.90
57552;DHT22;43379;48.160;14.036;2023-12-07T14:59:04;5.60;99.90
57552;DHT22;43379;48.160;14.036;2023-12-07T15:01:30;5.50;99.90
57552;DHT22;43379;48.160;14.036;2023-12-07T15:03:57;5.40;99.90
57552;DHT22;43379;48.160;14.036;2023-12-07T15:06:23;5.20;99.90
57552;DHT22;43379;48.160;14.036;2023-12-07T15:08:50;5.20;99.90
57552;DHT22;43379;48.160;14.036;2023-12-07T15:11:15;5.10;99.90
57552;DHT22;43379;48.160;14.036;2023-12-07T15:13:42;5.00;99.90
57552;DHT22;43379;48.160;14.036;2023-12-07T15:16:08;4.90;99.90
57552;DHT22;43379;48.160;14.036;2023-12-07T15:18:33;4.90;99.90
57552;DHT22;43379;48.160;14.036;2023-12-07T15:21:04;4.80;99.90
57552;DHT22;43379;48.160;14.036;2023-12-07T15:23:30;4.70;99.90
57552;DHT22;43379;48.160;14.036;2023-12-07T15:25:59;4.60;99.90
57552;DHT22;43379;48.160;14.036;2023-12-07T15:28:25;4.50;99.90
57552;DHT22;43379;48.160;14.036;2023-12-07T15:30:50;4.40;99.90
57552;DHT22;43379;48.160;14.036;2023-12-07T15:33:17;4.30;99.90
57552;DHT22;43379;48.160;14.036;2023-12-07T15:35:42;4.20;99.90